Time;durP1;ratioP1;P1;durP2;ratioP2;P2;SDS_P1;SDS_P2;PMS_P1;PMS_P2;Temp;Humidity;BMP_temperature;BMP_pressure;BME280_temperature;BME280_humidity;BME280_pressure;Samples;Min_cycle;Max_cycle;Signal;HPM_P1;HPM_P2
2023/08/21 00:01:13;;;;;;;13.90;12.40;;;;;;;24.79;100.00;100687.10;180282;1261;58183;-66
2023/08/21 00:05:17;;;;;;;14.00;12.50;;;;;;;24.78;100.00;100680.15;180272;1260;43572;-66
2023/08/21 00:09:19;;;;;;;13.20;11.80;;;;;;;24.78;100.00;100678.02;180492;1259;43592;-66
2023/08/21 00:13:22;;;;;;;17.90;15.30;;;;;;;24.82;100.00;100674.91;180336;1260;45945;-66
2023/08/21 00:17:25;;;;;;;19.70;13.90;;;;;;;24.82;100.00;100682.70;180244;1260;46021;-67
2023/08/21 00:21:29;;;;;;;14.20;12.70;;;;;;;24.79;100.00;100682.71;180126;1258;58329;-66
2023/08/21 00:25:38;;;;;;;15.10;13.30;;;;;;;24.80;100.00;100681.73;180196;1260;161343;-66
2023/08/21 00:29:41;;;;;;;15.60;12.60;;;;;;;24.80;100.00;100678.77;180298;1259;46044;-66
2023/08/21 00:33:44;;;;;;;19.80;13.90;;;;;;;24.79;100.00;100688.52;180229;1260;44065;-67
2023/08/21 00:37:47;;;;;;;16.60;13.50;;;;;;;24.78;100.00;100685.39;180153;1260;43567;-66
2023/08/21 00:42:20;;;;;;;18.90;13.40;;;;;;;24.78;100.00;100686.90;180237;1258;58511;-67
2023/08/21 00:46:23;;;;;;;34.70;13.80;;;;;;;24.73;100.00;100698.46;180119;1260;45972;-67
2023/08/21 00:50:26;;;;;;;20.40;17.60;;;;;;;24.68;100.00;100695.06;180147;1260;43716;-67
2023/08/21 00:54:29;;;;;;;18.80;15.20;;;;;;;24.62;100.00;100700.63;180285;1260;43826;-67
2023/08/21 00:58:33;;;;;;;17.60;15.80;;;;;;;24.57;100.00;100715.61;180601;1260;43579;-67
2023/08/21 01:02:36;;;;;;;17.60;15.00;;;;;;;24.47;100.00;100722.46;180566;1260;58056;-67
2023/08/21 01:06:41;;;;;;;15.10;13.60;;;;;;;24.51;100.00;100711.96;180381;1260;43592;-68
2023/08/21 01:11:27;;;;;;;17.10;14.00;;;;;;;24.58;100.00;100702.63;179876;1261;46022;-68
2023/08/21 01:15:46;;;;;;;15.90;14.30;;;;;;;24.65;100.00;100697.86;179342;1266;45047;-68
2023/08/21 01:19:52;;;;;;;21.20;18.20;;;;;;;24.70;100.00;100698.53;179396;1267;45910;-68
2023/08/21 01:24:29;;;;;;;17.40;15.10;;;;;;;24.63;100.00;100719.91;179491;1267;58600;-68
2023/08/21 01:28:35;;;;;;;20.70;18.50;;;;;;;24.55;100.00;100726.57;179502;1265;45940;-69
2023/08/21 01:33:10;;;;;;;20.60;16.40;;;;;;;24.55;100.00;100711.16;179428;1266;44679;-57
2023/08/21 01:37:14;;;;;;;26.60;19.10;;;;;;;24.40;100.00;100688.95;179748;1266;43821;-56
2023/08/21 01:41:17;;;;;;;24.80;21.40;;;;;;;24.18;100.00;100687.13;179786;1266;45921;-59
2023/08/21 01:45:22;;;;;;;24.80;20.70;;;;;;;24.00;100.00;100711.06;180010;1265;58492;-58
2023/08/21 01:49:26;;;;;;;31.10;20.30;;;;;;;23.73;100.00;100767.48;179936;1260;43642;-58
2023/08/21 01:53:29;;;;;;;27.90;16.60;;;;;;;23.45;100.00;100799.42;180545;1260;45860;-57
2023/08/21 01:57:32;;;;;;;17.20;13.70;;;;;;;23.40;100.00;100815.87;180679;1260;45964;-58
2023/08/21 02:01:35;;;;;;;24.70;18.30;;;;;;;23.37;100.00;100834.11;180477;1260;45962;-59
2023/08/21 02:05:42;;;;;;;25.10;16.10;;;;;;;23.34;100.00;100835.28;180264;1260;58497;-61
2023/08/21 02:09:45;;;;;;;32.40;18.80;;;;;;;23.31;100.00;100819.66;180360;1259;43609;-58
2023/08/21 02:13:48;;;;;;;23.70;16.50;;;;;;;23.29;100.00;100771.15;180583;1259;44923;-58
2023/08/21 02:18:16;;;;;;;19.60;15.60;;;;;;;23.14;100.00;100746.40;180363;1260;44730;-59
2023/08/21 02:22:19;;;;;;;21.00;16.30;;;;;;;23.06;100.00;100750.10;180308;1259;43596;-60
2023/08/21 02:26:21;;;;;;;20.10;17.40;;;;;;;23.04;100.00;100754.01;180042;1258;59919;-59
2023/08/21 02:30:25;;;;;;;25.40;22.60;;;;;;;23.02;100.00;100732.76;180060;1260;46355;-60
2023/08/21 02:34:28;;;;;;;36.30;26.00;;;;;;;22.98;100.00;100735.02;180147;1260;46023;-60
2023/08/21 02:38:56;;;;;;;25.10;22.40;;;;;;;22.92;100.00;100736.34;180313;1260;45991;-61
2023/08/21 02:43:02;;;;;;;26.50;22.00;;;;;;;22.83;100.00;100731.36;180250;1263;43636;-60
2023/08/21 02:47:05;;;;;;;26.60;22.90;;;;;;;22.76;100.00;100733.88;180235;1260;58950;-61
2023/08/21 02:51:08;;;;;;;26.80;22.70;;;;;;;22.71;100.00;100745.48;180175;1260;46073;-60
2023/08/21 02:55:11;;;;;;;26.80;22.90;;;;;;;22.69;100.00;100750.88;180379;1259;45302;-61
2023/08/21 02:59:14;;;;;;;28.90;25.50;;;;;;;22.64;100.00;100748.90;180317;1260;46084;-61
2023/08/21 03:03:17;;;;;;;26.30;22.50;;;;;;;22.60;100.00;100753.73;180327;1260;43494;-60
2023/08/21 03:07:20;;;;;;;27.30;24.50;;;;;;;22.53;100.00;100763.22;180357;1258;58061;-60
2023/08/21 03:11:23;;;;;;;26.90;19.90;;;;;;;22.44;100.00;100754.84;180244;1260;43925;-60
2023/08/21 03:15:26;;;;;;;28.20;18.90;;;;;;;22.30;100.00;100751.69;180336;1261;45984;-61
2023/08/21 03:19:29;;;;;;;25.90;22.60;;;;;;;22.22;100.00;100768.94;180241;1259;45901;-61
2023/08/21 03:23:31;;;;;;;23.00;20.80;;;;;;;22.14;100.00;100767.53;180357;1260;43611;-59
2023/08/21 03:27:39;;;;;;;24.80;19.70;;;;;;;22.11;100.00;100741.42;180385;1260;58548;-60
2023/08/21 03:31:49;;;;;;;25.90;21.70;;;;;;;22.08;100.00;100745.91;180217;1260;45897;-61
2023/08/21 03:35:55;;;;;;;34.10;21.90;;;;;;;22.08;100.00;100770.05;180319;1260;44790;-59
2023/08/21 03:39:58;;;;;;;29.50;24.30;;;;;;;22.10;100.00;100793.17;180321;1260;45023;-61
2023/08/21 03:44:01;;;;;;;25.60;22.30;;;;;;;22.14;100.00;100781.66;180431;1260;43684;-60
2023/08/21 03:48:04;;;;;;;25.10;22.50;;;;;;;22.16;100.00;100773.84;180390;1260;59530;-60
2023/08/21 03:52:07;;;;;;;29.60;22.10;;;;;;;22.17;100.00;100754.22;180365;1259;43695;-60
2023/08/21 03:56:10;;;;;;;24.10;21.50;;;;;;;22.16;100.00;100758.08;180376;1260;44128;-60
2023/08/21 04:00:14;;;;;;;24.50;21.20;;;;;;;22.12;100.00;100767.63;180196;1260;46072;-61
2023/08/21 04:04:17;;;;;;;25.30;20.50;;;;;;;22.11;100.00;100780.16;180300;1260;45930;-61
2023/08/21 04:08:23;;;;;;;22.80;19.10;;;;;;;22.09;100.00;100787.26;180275;1260;58676;-61
2023/08/21 04:12:26;;;;;;;26.20;23.70;;;;;;;22.15;100.00;100778.59;180369;1260;43989;-61
2023/08/21 04:16:30;;;;;;;23.70;19.70;;;;;;;22.19;100.00;100782.77;180204;1260;44757;-62
2023/08/21 04:20:35;;;;;;;22.90;20.50;;;;;;;22.20;100.00;100786.09;180080;1260;44867;-61
2023/08/21 04:25:04;;;;;;;23.00;20.70;;;;;;;22.22;100.00;100785.66;180049;1260;45875;-60
2023/08/21 04:29:08;;;;;;;25.50;22.90;;;;;;;22.25;100.00;100786.41;179948;1263;58954;-61
2023/08/21 04:33:11;;;;;;;23.40;20.90;;;;;;;22.31;100.00;100791.70;179857;1259;44127;-61
2023/08/21 04:37:15;;;;;;;25.50;22.70;;;;;;;22.33;100.00;100795.33;180091;1258;44878;-60
2023/08/21 04:41:18;;;;;;;22.00;19.60;;;;;;;22.28;100.00;100808.58;180048;1260;43698;-60
2023/08/21 04:45:21;;;;;;;21.50;18.20;;;;;;;22.22;100.00;100810.77;180072;1259;46057;-60
2023/08/21 04:49:24;;;;;;;25.00;21.70;;;;;;;22.23;100.00;100802.77;180275;1260;60568;-60
2023/08/21 04:53:27;;;;;;;23.80;20.40;;;;;;;22.29;100.00;100794.28;180261;1259;45947;-60
2023/08/21 04:57:38;;;;;;;22.50;20.10;;;;;;;22.38;100.00;100811.84;180418;1258;44578;-60
2023/08/21 05:01:41;;;;;;;20.60;18.30;;;;;;;22.45;100.00;100823.75;180262;1260;43821;-60
2023/08/21 05:06:15;;;;;;;21.00;18.60;;;;;;;22.57;100.00;100823.54;180396;1259;45030;-60
2023/08/21 05:10:18;;;;;;;22.60;20.30;;;;;;;22.60;100.00;100814.84;179970;1259;58895;-60
2023/08/21 05:14:23;;;;;;;23.30;17.80;;;;;;;22.59;100.00;100811.94;179835;1260;45994;-61
2023/08/21 05:18:26;;;;;;;;;;;;;;;22.51;100.00;100811.63;179849;1259;46039;-61
2023/08/21 05:22:55;;;;;;;20.10;17.30;;;;;;;22.44;100.00;100810.68;181562;1258;43540;-61
2023/08/21 05:26:58;;;;;;;17.40;15.60;;;;;;;22.46;100.00;100821.63;181450;1259;43061;-60
2023/08/21 05:31:03;;;;;;;23.90;18.30;;;;;;;22.44;100.00;100813.14;181648;1259;57903;-60
2023/08/21 05:35:08;;;;;;;20.70;15.60;;;;;;;22.48;100.00;100811.65;181602;1259;43725;-60
2023/08/21 05:39:10;;;;;;;18.10;15.60;;;;;;;22.41;100.00;100803.94;181562;1260;43844;-60
2023/08/21 05:44:19;;;;;;;22.90;17.90;;;;;;;22.46;100.00;100816.33;181530;1259;43093;-59
2023/08/21 05:51:31;;;;;;;15.60;14.00;;;;;;;22.71;100.00;100837.84;175206;1291;566904;-81
2023/08/21 05:55:37;;;;;;;17.40;13.90;;;;;;;22.73;100.00;100845.54;179190;1269;58647;-81
2023/08/21 05:59:47;;;;;;;20.30;14.80;;;;;;;22.78;100.00;100850.79;179101;1266;45995;-82
2023/08/21 06:03:50;;;;;;;15.90;13.40;;;;;;;22.80;100.00;100861.95;179245;1263;226042;-81
2023/08/21 06:07:53;;;;;;;17.40;14.00;;;;;;;22.78;100.00;100862.52;180423;1254;45961;-82
2023/08/21 06:11:57;;;;;;;13.40;12.00;;;;;;;22.72;100.00;100861.24;180164;1254;45996;-82
2023/08/21 06:16:00;;;;;;;15.90;10.50;;;;;;;22.74;100.00;100851.39;180758;1256;57889;-82
2023/08/21 06:20:11;;;;;;;12.90;10.90;;;;;;;22.85;100.00;100869.80;180686;1254;44085;-83
2023/08/21 06:24:14;;;;;;;12.50;11.30;;;;;;;22.87;100.00;100879.27;180265;1253;45981;-84
2023/08/21 06:28:18;;;;;;;14.00;12.40;;;;;;;22.90;100.00;100877.16;180237;1255;44695;-84
2023/08/21 06:32:21;;;;;;;18.30;11.30;;;;;;;22.87;100.00;100870.45;180048;1254;44244;-84
2023/08/21 06:36:25;;;;;;;14.80;13.30;;;;;;;22.89;100.00;100876.82;180510;1255;58222;-85
2023/08/21 06:40:29;;;;;;;13.80;12.40;;;;;;;22.95;100.00;100875.66;179159;1253;44532;-88
2023/08/21 06:44:32;;;;;;;15.00;13.40;;;;;;;22.97;100.00;100870.92;178051;1256;45959;-88
2023/08/21 06:48:39;;;;;;;14.90;13.40;;;;;;;22.92;100.00;100872.98;178095;1254;46093;-88
2023/08/21 06:52:43;;;;;;;14.60;13.10;;;;;;;22.91;100.00;100854.86;178193;1259;46114;-89
2023/08/21 06:56:46;;;;;;;15.10;12.10;;;;;;;22.74;100.00;100837.86;178097;1257;59711;-88
2023/08/21 07:00:49;;;;;;;13.00;10.10;;;;;;;22.60;100.00;100842.65;178181;1257;45958;-88
2023/08/21 07:04:53;;;;;;;15.30;13.70;;;;;;;22.68;100.00;100846.77;178051;1258;45965;-88
2023/08/21 07:08:56;;;;;;;18.50;16.50;;;;;;;23.18;100.00;100848.71;178240;1256;46150;-89
2023/08/21 07:12:59;;;;;;;22.10;16.00;;;;;;;23.83;100.00;100850.89;177771;1255;45976;-88
2023/08/21 07:17:02;;;;;;;15.20;13.30;;;;;;;24.21;100.00;100851.45;178255;1259;59363;-89
2023/08/21 07:21:06;;;;;;;23.30;18.40;;;;;;;24.52;100.00;100851.02;178194;1256;46088;-88
2023/08/21 07:25:28;;;;;;;19.30;14.30;;;;;;;24.84;100.00;100851.58;178225;1256;46073;-88
2023/08/21 07:29:32;;;;;;;20.40;13.90;;;;;;;24.82;100.00;100858.48;178503;1257;46018;-88
2023/08/21 07:33:35;;;;;;;10.60;9.60;;;;;;;24.71;100.00;100857.55;178143;1256;46103;-87
2023/08/21 07:37:40;;;;;;;10.80;9.70;;;;;;;24.81;100.00;100861.10;178053;1258;58243;-87
2023/08/21 07:41:44;;;;;;;11.30;10.00;;;;;;;25.04;100.00;100876.71;178037;1258;46101;-87
2023/08/21 07:45:47;;;;;;;8.80;8.00;;;;;;;25.06;100.00;100876.16;178281;1257;46012;-87
2023/08/21 07:49:50;;;;;;;10.20;7.90;;;;;;;25.17;100.00;100871.75;178314;1259;46093;-87
2023/08/21 07:53:53;;;;;;;11.90;8.50;;;;;;;25.18;100.00;100877.27;178490;1256;46022;-86
2023/08/21 07:57:57;;;;;;;6.20;5.60;;;;;;;25.11;100.00;100885.52;178350;1256;58234;-86
2023/08/21 08:02:00;;;;;;;8.60;6.20;;;;;;;25.01;100.00;100884.20;178049;1256;46117;-86
2023/08/21 08:06:04;;;;;;;7.40;6.50;;;;;;;25.01;100.00;100884.84;178341;1259;46221;-86
2023/08/21 08:10:09;;;;;;;8.50;7.00;;;;;;;25.08;100.00;100887.30;178494;1260;46054;-86
2023/08/21 08:14:13;;;;;;;7.40;6.70;;;;;;;25.26;100.00;100882.71;178346;1254;44584;-86
2023/08/21 08:18:16;;;;;;;8.00;7.20;;;;;;;25.27;100.00;100879.78;177919;1259;58362;-85
2023/08/21 08:22:19;;;;;;;9.90;7.50;;;;;;;25.55;100.00;100873.77;178064;1256;46063;-85
2023/08/21 08:26:22;;;;;;;8.90;5.50;;;;;;;25.73;100.00;100873.62;178224;1259;46018;-85
2023/08/21 08:30:26;;;;;;;6.50;5.80;;;;;;;25.77;100.00;100868.79;177972;1256;45972;-85
2023/08/21 08:34:29;;;;;;;6.00;5.20;;;;;;;25.82;100.00;100873.09;178351;1258;46088;-85
2023/08/21 08:38:32;;;;;;;5.10;4.40;;;;;;;25.87;99.79;100873.74;178327;1259;59028;-85
2023/08/21 08:42:36;;;;;;;6.80;3.50;;;;;;;26.02;97.05;100874.77;178338;1259;46143;-85
2023/08/21 08:46:39;;;;;;;9.90;4.70;;;;;;;26.09;93.82;100873.44;178303;1255;46129;-84
2023/08/21 08:50:43;;;;;;;29.80;4.80;;;;;;;26.24;96.44;100864.77;178565;1254;46197;-85
2023/08/21 08:54:47;;;;;;;12.10;7.60;;;;;;;26.20;92.62;100861.21;178483;1255;46381;-85
2023/08/21 08:58:51;;;;;;;14.00;8.40;;;;;;;26.23;97.76;100861.77;178492;1253;59390;-85
2023/08/21 09:02:55;;;;;;;13.40;11.20;;;;;;;26.32;91.23;100870.39;178675;1254;45664;-85
2023/08/21 09:07:09;;;;;;;6.80;6.10;;;;;;;26.42;92.33;100878.33;178871;1254;46080;-84
2023/08/21 09:11:17;;;;;;;5.10;4.60;;;;;;;26.63;93.20;100874.81;178476;1255;46448;-84
2023/08/21 09:15:22;;;;;;;6.50;4.50;;;;;;;26.82;91.75;100870.55;178850;1257;46005;-84
2023/08/21 09:19:25;;;;;;;5.70;3.70;;;;;;;26.84;91.55;100860.21;178740;1254;58241;-84
2023/08/21 09:23:28;;;;;;;3.90;3.60;;;;;;;26.90;87.91;100855.20;178786;1254;46027;-84
2023/08/21 09:27:32;;;;;;;10.70;6.50;;;;;;;26.94;85.48;100851.82;179009;1254;44035;-84
2023/08/21 09:31:36;;;;;;;6.70;4.70;;;;;;;27.00;85.88;100856.60;178905;1259;46165;-84
2023/08/21 09:35:43;;;;;;;8.00;4.00;;;;;;;27.12;86.31;100851.55;179072;1255;46095;-84
2023/08/21 09:39:46;;;;;;;6.10;4.30;;;;;;;27.16;84.43;100849.96;179026;1254;57922;-84
2023/08/21 09:43:50;;;;;;;3.90;3.30;;;;;;;27.15;86.33;100844.42;179111;1254;44148;-84
2023/08/21 09:47:53;;;;;;;4.80;4.30;;;;;;;27.20;89.28;100838.41;179099;1254;46108;-84
2023/08/21 09:51:57;;;;;;;3.40;2.40;;;;;;;27.32;84.07;100831.96;179098;1258;45865;-84
2023/08/21 09:56:04;;;;;;;7.00;3.50;;;;;;;27.37;81.27;100832.97;179539;1254;44776;-84
2023/08/21 10:00:15;;;;;;;9.80;2.70;;;;;;;27.39;80.10;100832.48;179461;1255;58492;-83
2023/08/21 10:04:22;;;;;;;5.90;3.10;;;;;;;27.51;81.01;100839.18;180314;1254;44317;-84
2023/08/21 10:08:26;;;;;;;3.50;2.20;;;;;;;27.62;79.02;100839.21;179345;1257;45981;-83
2023/08/21 10:12:29;;;;;;;7.40;2.40;;;;;;;27.75;78.54;100833.45;179112;1257;46236;-83
2023/08/21 10:16:32;;;;;;;2.50;2.30;;;;;;;27.91;78.52;100836.84;179304;1257;44685;-83
2023/08/21 10:20:36;;;;;;;6.20;2.70;;;;;;;27.81;77.31;100839.90;179540;1257;58389;-83
2023/08/21 10:24:39;;;;;;;4.00;2.20;;;;;;;27.76;75.71;100840.26;179616;1254;46188;-83
2023/08/21 10:28:52;;;;;;;3.80;1.90;;;;;;;27.83;77.87;100838.75;179262;1255;45974;-83
2023/08/21 10:32:58;;;;;;;3.90;2.50;;;;;;;27.92;78.03;100841.80;179520;1254;45901;-83
2023/08/21 10:37:05;;;;;;;5.30;2.40;;;;;;;27.80;75.76;100842.48;179508;1254;45908;-83
2023/08/21 10:41:10;;;;;;;2.70;2.50;;;;;;;27.74;76.47;100831.70;179571;1254;58433;-83
2023/08/21 10:45:14;;;;;;;3.80;2.20;;;;;;;27.85;76.68;100821.92;179553;1254;46009;-83
2023/08/21 10:49:17;;;;;;;6.20;2.40;;;;;;;28.04;77.70;100815.20;179626;1254;46092;-83
2023/08/21 10:53:23;;;;;;;4.80;2.80;;;;;;;28.14;76.04;100817.95;179720;1254;45931;-83
2023/08/21 10:57:29;;;;;;;3.20;2.40;;;;;;;28.31;76.02;100813.05;179612;1260;45938;-83
2023/08/21 11:01:45;;;;;;;3.60;2.50;;;;;;;28.38;75.10;100804.81;179781;1254;59235;-83
2023/08/21 11:06:07;;;;;;;3.90;2.70;;;;;;;28.27;74.99;100803.14;179792;1259;46113;-83
2023/08/21 11:10:13;;;;;;;2.00;1.80;;;;;;;28.31;74.98;100799.94;179969;1254;44072;-83
2023/08/21 11:14:16;;;;;;;3.10;2.40;;;;;;;28.24;73.99;100802.27;179806;1254;45907;-83
2023/08/21 11:18:24;;;;;;;3.40;3.00;;;;;;;28.34;75.03;100802.92;180152;1254;44724;-83
2023/08/21 11:22:30;;;;;;;3.40;3.00;;;;;;;28.42;75.50;100799.23;179876;1255;59511;-83
2023/08/21 11:26:33;;;;;;;2.90;2.10;;;;;;;28.44;74.33;100789.27;180578;1254;46061;-83
2023/08/21 11:30:37;;;;;;;4.70;2.80;;;;;;;28.35;75.50;100785.02;180113;1254;46070;-83
2023/08/21 11:34:48;;;;;;;6.10;3.90;;;;;;;28.30;76.85;100775.97;180041;1254;45945;-83
2023/08/21 11:38:59;;;;;;;6.10;3.60;;;;;;;28.34;78.66;100773.60;180060;1254;45946;-83
2023/08/21 11:43:05;;;;;;;5.20;2.70;;;;;;;28.38;83.62;100775.05;180075;1254;57917;-83
2023/08/21 11:47:08;;;;;;;7.40;3.50;;;;;;;28.47;78.57;100769.87;180147;1254;46034;-83
2023/08/21 11:51:12;;;;;;;5.90;3.70;;;;;;;28.58;77.44;100768.41;179852;1254;44481;-83
2023/08/21 11:55:17;;;;;;;6.20;3.90;;;;;;;28.67;82.31;100766.99;179807;1254;45966;-83
2023/08/21 11:59:23;;;;;;;4.00;3.60;;;;;;;28.85;79.44;100766.30;180037;1254;46057;-83
2023/08/21 12:03:27;;;;;;;4.10;3.20;;;;;;;28.96;77.80;100765.91;179820;1254;59258;-83
2023/08/21 12:07:33;;;;;;;5.20;3.50;;;;;;;29.06;78.97;100769.36;180084;1255;45923;-83
2023/08/21 12:11:38;;;;;;;8.00;4.00;;;;;;;29.13;79.78;100770.08;180043;1254;44048;-83
2023/08/21 12:15:41;;;;;;;5.90;4.70;;;;;;;29.36;80.19;100764.52;180301;1254;45933;-83
2023/08/21 12:19:45;;;;;;;9.10;6.60;;;;;;;29.50;77.68;100767.32;180084;1258;44500;-83
2023/08/21 12:23:48;;;;;;;7.80;4.70;;;;;;;29.53;75.70;100765.79;180132;1254;59632;-83
2023/08/21 12:27:52;;;;;;;4.60;4.00;;;;;;;29.61;75.65;100763.10;180610;1254;46504;-83
2023/08/21 12:32:10;;;;;;;4.70;4.10;;;;;;;29.77;76.28;100766.66;180509;1254;43959;-83
2023/08/21 12:36:13;;;;;;;6.50;4.80;;;;;;;29.99;77.18;100760.63;180111;1254;45871;-83
2023/08/21 12:40:17;;;;;;;5.50;3.60;;;;;;;30.04;75.22;100762.94;180264;1254;45897;-83
2023/08/21 12:44:20;;;;;;;5.60;3.80;;;;;;;30.02;76.14;100757.15;180152;1254;57940;-83
2023/08/21 12:48:24;;;;;;;3.30;3.00;;;;;;;30.06;76.07;100754.15;180493;1254;44027;-83
2023/08/21 12:52:27;;;;;;;4.80;4.30;;;;;;;30.06;75.82;100754.48;180634;1254;44017;-83
2023/08/21 12:56:31;;;;;;;5.10;3.90;;;;;;;30.20;75.08;100752.39;180407;1254;44625;-82
2023/08/21 13:00:35;;;;;;;4.30;3.60;;;;;;;30.33;74.92;100753.50;180566;1254;44752;-82
2023/08/21 13:04:39;;;;;;;6.10;4.90;;;;;;;30.44;72.94;100745.40;180652;1257;59577;-81
2023/08/21 13:08:43;;;;;;;7.80;4.00;;;;;;;30.58;74.15;100743.83;180629;1254;45891;-82
2023/08/21 13:12:47;;;;;;;4.50;3.70;;;;;;;30.67;74.19;100738.46;180679;1254;46040;-82
2023/08/21 13:16:51;;;;;;;4.30;3.70;;;;;;;30.62;73.18;100733.79;180748;1254;43882;-82
2023/08/21 13:20:55;;;;;;;5.60;3.00;;;;;;;30.61;74.32;100734.61;180543;1254;45922;-82
2023/08/21 13:24:58;;;;;;;5.30;4.00;;;;;;;30.72;74.71;100728.88;180588;1254;59803;-83
2023/08/21 13:29:02;;;;;;;4.10;3.80;;;;;;;30.78;75.28;100724.73;180657;1254;45941;-83
2023/08/21 13:33:07;;;;;;;5.40;4.00;;;;;;;30.88;73.92;100721.54;180455;1254;46140;-82
2023/08/21 13:37:11;;;;;;;;;;;;;;;30.94;71.57;100714.86;180337;1254;45948;-83
2023/08/21 13:41:16;;;;;;;4.40;3.70;;;;;;;30.96;70.26;100717.90;180550;1253;43818;-83
2023/08/21 13:45:23;;;;;;;4.90;4.30;;;;;;;31.01;70.72;100718.58;180466;1255;57977;-83
2023/08/21 13:49:27;;;;;;;5.30;4.40;;;;;;;31.08;71.37;100713.09;180554;1254;45957;-83
2023/08/21 13:53:31;;;;;;;6.10;3.10;;;;;;;31.15;71.30;100713.71;180448;1254;44146;-83
2023/08/21 13:57:35;;;;;;;5.50;4.80;;;;;;;31.27;70.03;100714.24;180321;1254;46022;-83
2023/08/21 14:01:40;;;;;;;4.80;4.10;;;;;;;31.33;69.30;100714.61;180431;1257;44689;-83
2023/08/21 14:05:43;;;;;;;5.70;3.20;;;;;;;31.38;70.16;100710.88;180632;1254;58501;-83
2023/08/21 14:09:47;;;;;;;3.00;2.70;;;;;;;31.39;67.58;100710.61;180515;1255;46006;-83
2023/08/21 14:13:50;;;;;;;3.80;3.40;;;;;;;31.43;68.04;100696.14;180677;1256;43990;-82
2023/08/21 14:17:54;;;;;;;6.60;4.70;;;;;;;31.38;68.63;100691.59;180730;1254;45962;-82
2023/08/21 14:22:01;;;;;;;6.40;3.40;;;;;;;31.35;68.36;100692.98;181004;1254;90533;-60
2023/08/21 14:26:04;;;;;;;3.30;2.90;;;;;;;31.40;68.86;100694.84;180848;1256;58887;-61
2023/08/21 14:30:12;;;;;;;4.70;4.20;;;;;;;31.44;68.37;100699.25;180911;1255;46068;-60
2023/08/21 14:49:24;;;;;;;4.20;3.80;;;;;;;31.32;66.52;100669.30;180054;1264;60890;-61
2023/08/21 14:53:27;;;;;;;5.90;3.90;;;;;;;31.37;66.99;100666.29;179950;1263;45308;-60
2023/08/21 14:57:33;;;;;;;4.90;3.80;;;;;;;31.43;66.20;100665.85;180120;1263;44351;-61
2023/08/21 15:01:39;;;;;;;3.30;3.00;;;;;;;31.43;65.25;100666.07;179939;1263;43712;-61
2023/08/21 15:15:38;;;;;;;4.20;2.70;;;;;;;31.46;65.34;100682.50;180343;1261;45940;-60
2023/08/21 15:19:42;;;;;;;5.00;3.60;;;;;;;31.51;64.66;100682.89;180325;1261;43558;-60
2023/08/21 15:23:46;;;;;;;3.40;2.80;;;;;;;31.57;64.04;100680.77;180270;1260;43604;-60
2023/08/21 15:27:48;;;;;;;4.60;2.10;;;;;;;31.65;63.72;100679.67;180220;1260;44234;-60
2023/08/21 15:31:52;;;;;;;10.90;3.40;;;;;;;31.70;65.51;100675.46;180249;1261;58938;-60
2023/08/21 15:36:22;;;;;;;9.00;3.30;;;;;;;31.73;64.64;100662.40;180385;1259;43608;-61
2023/08/21 15:40:25;;;;;;;4.40;3.50;;;;;;;31.71;63.92;100662.86;180425;1260;44916;-60
2023/08/21 15:44:28;;;;;;;5.10;2.70;;;;;;;31.71;63.70;100670.62;180296;1260;43637;-61
2023/08/21 15:48:32;;;;;;;4.00;2.50;;;;;;;31.70;65.89;100669.02;180416;1260;43724;-60
2023/08/21 15:52:37;;;;;;;3.60;2.70;;;;;;;31.61;66.19;100667.98;180206;1262;58526;-60
2023/08/21 15:56:40;;;;;;;2.70;2.40;;;;;;;31.59;65.61;100669.29;180298;1261;45950;-60
2023/08/21 16:00:47;;;;;;;3.30;3.00;;;;;;;31.58;67.25;100666.58;180259;1260;43736;-60
2023/08/21 16:04:50;;;;;;;3.30;2.90;;;;;;;31.61;68.10;100664.02;180270;1261;45014;-60
2023/08/21 16:09:48;;;;;;;2.40;2.20;;;;;;;31.62;67.38;100666.95;180163;1261;43683;-61
2023/08/21 16:13:56;;;;;;;3.00;2.70;;;;;;;31.55;65.24;100665.39;180242;1262;58432;-64
2023/08/21 16:17:59;;;;;;;3.00;2.70;;;;;;;31.41;64.06;100654.89;180176;1260;43684;-65
2023/08/21 16:22:03;;;;;;;3.60;2.70;;;;;;;31.24;64.88;100656.61;180226;1265;43702;-64
2023/08/21 16:26:07;;;;;;;4.60;2.50;;;;;;;31.02;65.93;100660.16;180146;1262;43629;-64
2023/08/21 16:30:10;;;;;;;3.40;3.10;;;;;;;30.78;66.23;100660.09;180373;1263;43598;-64
2023/08/21 16:40:04;;;;;;;5.50;4.40;;;;;;;30.43;71.48;100670.03;180480;1261;43582;-64
2023/08/21 16:44:11;;;;;;;6.40;3.80;;;;;;;30.30;72.08;100673.21;180330;1261;45040;-64
2023/08/21 16:48:14;;;;;;;4.00;2.60;;;;;;;30.21;72.56;100673.02;180437;1262;45919;-64
2023/08/21 16:52:19;;;;;;;;;;;;;;;30.12;73.29;100668.04;180478;1260;43581;-64
2023/08/21 16:56:53;;;;;;;4.10;3.70;;;;;;;30.04;73.17;100668.38;180514;1261;57057;-65
2023/08/21 17:00:56;;;;;;;6.90;4.60;;;;;;;29.96;73.10;100670.19;180447;1259;44794;-64
2023/08/21 17:05:55;;;;;;;3.90;2.90;;;;;;;29.89;72.92;100671.20;180512;1259;43570;-64
2023/08/21 17:10:15;;;;;;;6.10;3.20;;;;;;;29.76;71.69;100670.71;181072;1258;43543;-61
2023/08/21 17:14:19;;;;;;;4.20;3.20;;;;;;;29.65;72.11;100665.66;180441;1262;43927;-79
2023/08/21 17:18:22;;;;;;;3.50;2.80;;;;;;;29.52;73.27;100662.90;180527;1262;58598;-79
2023/08/21 17:22:26;;;;;;;6.20;3.50;;;;;;;29.38;73.49;100662.14;180386;1262;44779;-80
2023/08/21 17:26:29;;;;;;;5.40;3.90;;;;;;;29.26;74.20;100657.67;180424;1262;44482;-81
2023/08/21 17:30:35;;;;;;;4.00;3.20;;;;;;;29.14;74.64;100654.92;180412;1262;46051;-80
2023/08/21 17:34:39;;;;;;;3.60;3.10;;;;;;;29.03;75.00;100659.94;180315;1262;43684;-79
2023/08/21 17:38:42;;;;;;;3.50;3.10;;;;;;;28.91;75.06;100670.09;180327;1262;60041;-81
2023/08/21 17:42:46;;;;;;;3.70;3.20;;;;;;;28.80;76.12;100679.56;180427;1262;43869;-80
2023/08/21 17:46:50;;;;;;;5.40;3.60;;;;;;;28.66;78.57;100678.64;180360;1262;46003;-79
2023/08/21 17:50:54;;;;;;;3.50;3.20;;;;;;;28.53;81.58;100676.30;180199;1262;45982;-79
2023/08/21 17:54:59;;;;;;;3.60;3.30;;;;;;;28.38;81.85;100674.23;180458;1263;44177;-80
2023/08/21 17:59:04;;;;;;;9.20;4.10;;;;;;;28.21;82.41;100674.40;180337;1264;58408;-81
2023/08/21 18:03:09;;;;;;;5.80;3.70;;;;;;;28.04;83.46;100669.41;179995;1262;343076;-81
2023/08/21 18:07:14;;;;;;;7.30;4.40;;;;;;;27.85;83.11;100673.55;180288;1262;44986;-80
2023/08/21 18:11:19;;;;;;;5.40;4.40;;;;;;;27.65;83.51;100679.67;180306;1265;44584;-81
2023/08/21 18:15:23;;;;;;;;;;;;;;;27.46;85.81;100686.67;180226;1264;44824;-80
2023/08/21 18:19:34;;;;;;;6.60;4.20;;;;;;;27.27;93.39;100695.72;180218;1263;57982;-80
2023/08/21 18:23:49;;;;;;;4.80;4.10;;;;;;;27.09;96.56;100701.50;179964;1262;43923;-84
2023/08/21 18:27:52;;;;;;;6.00;4.60;;;;;;;26.89;95.15;100705.05;179700;1262;44465;-84
2023/08/21 18:31:58;;;;;;;9.80;5.00;;;;;;;26.71;94.16;100710.14;179661;1261;43995;-84
2023/08/21 18:36:01;;;;;;;9.90;4.90;;;;;;;26.51;94.69;100711.11;179137;1262;46214;-84
2023/08/21 18:40:05;;;;;;;9.10;5.40;;;;;;;26.29;95.71;100711.16;179185;1262;57951;-87
2023/08/21 18:44:09;;;;;;;5.30;3.90;;;;;;;26.10;96.00;100710.60;179017;1261;45888;-84
2023/08/21 18:48:14;;;;;;;6.80;4.00;;;;;;;25.93;97.28;100710.73;178930;1261;45972;-85
2023/08/21 18:52:18;;;;;;;8.20;4.40;;;;;;;25.76;97.45;100704.86;178629;1262;44198;-84
2023/08/21 18:56:21;;;;;;;9.90;4.60;;;;;;;25.62;96.70;100708.50;178567;1261;45988;-85
2023/08/21 19:00:25;;;;;;;4.30;3.70;;;;;;;25.51;96.49;100706.69;178634;1262;59238;-85
2023/08/21 19:04:31;;;;;;;6.40;5.10;;;;;;;25.40;96.64;100710.30;178616;1262;46090;-84
2023/08/21 19:08:35;;;;;;;9.20;4.70;;;;;;;25.32;97.02;100711.62;179413;1261;44831;-84